createdAt,value
2023-03-31T00:01:41.358Z,18.23
2023-03-31T00:07:45.246Z,18.42
2023-03-31T00:13:47.518Z,18.70
2023-03-31T00:19:49.280Z,18.36
2023-03-31T00:25:50.765Z,18.03
2023-03-31T00:31:53.228Z,17.90
2023-03-31T00:38:00.599Z,17.88
2023-03-31T00:44:12.408Z,18.52
2023-03-31T00:50:18.127Z,17.67
2023-03-31T00:56:20.155Z,17.95
2023-03-31T01:02:24.847Z,18.07
2023-03-31T01:08:27.348Z,17.88
2023-03-31T01:14:30.343Z,18.14
2023-03-31T01:20:55.946Z,17.97
2023-03-31T01:27:10.472Z,18.04
2023-03-31T01:33:24.794Z,18.07
2023-03-31T01:40:04.003Z,18.28
2023-03-31T01:46:30.303Z,18.37
2023-03-31T01:52:35.840Z,18.70
2023-03-31T01:58:40.289Z,18.43
2023-03-31T02:04:52.343Z,18.04
2023-03-31T02:10:54.619Z,18.17
2023-03-31T02:16:57.825Z,18.01
2023-03-31T02:23:00.100Z,17.90
2023-03-31T02:29:01.796Z,17.95
2023-03-31T02:35:05.481Z,17.97
2023-03-31T02:41:07.820Z,18.21
2023-03-31T02:47:11.372Z,18.16
2023-03-31T02:54:00.793Z,18.13
2023-03-31T03:00:25.090Z,18.12
2023-03-31T03:06:37.098Z,17.94
2023-03-31T03:12:58.305Z,18.14
2023-03-31T03:19:02.564Z,17.80
2023-03-31T03:25:09.881Z,18.08
2023-03-31T03:31:12.807Z,17.88
2023-03-31T03:37:14.324Z,17.64
2023-03-31T03:43:15.796Z,17.70
2023-03-31T03:49:17.452Z,17.58
2023-03-31T03:55:19.280Z,17.62
2023-03-31T04:01:20.941Z,17.67
2023-03-31T04:07:22.402Z,17.61
2023-03-31T04:13:23.995Z,17.55
2023-03-31T04:19:26.760Z,17.34
2023-03-31T04:25:29.960Z,17.49
2023-03-31T04:31:31.567Z,17.61
2023-03-31T04:37:34.038Z,17.89
2023-03-31T04:43:35.672Z,18.00
2023-03-31T04:49:37.425Z,18.13
2023-03-31T04:55:38.967Z,18.28
2023-03-31T05:01:44.784Z,18.28
2023-03-31T05:07:46.399Z,18.15
2023-03-31T05:13:47.916Z,18.34
2023-03-31T05:19:49.530Z,18.49
2023-03-31T05:25:51.082Z,18.57
2023-03-31T05:31:53.401Z,18.65
2023-03-31T05:37:55.332Z,18.68
2023-03-31T05:43:56.833Z,18.92
2023-03-31T05:49:58.894Z,19.46
2023-03-31T05:56:02.308Z,19.87
2023-03-31T06:02:04.285Z,19.84
2023-03-31T06:08:06.955Z,19.30
2023-03-31T06:14:08.393Z,19.09
2023-03-31T06:21:26.672Z,19.12
2023-03-31T06:27:28.191Z,19.28
